Time;durP1;ratioP1;P1;durP2;ratioP2;P2;SDS_P1;SDS_P2;PMS_P1;PMS_P2;Temp;Humidity;BMP_temperature;BMP_pressure;BME280_temperature;BME280_humidity;BME280_pressure;Samples;Min_cycle;Max_cycle;Signal;HPM_P1;HPM_P2
2021/09/03 00:00:16;;;;;;;;;;;19.30;90.40;;;;;;4318010;33;43101;-77
2021/09/03 00:02:50;;;;;;;;;;;19.30;90.40;;;;;;4330711;33;43886;-77
2021/09/03 00:05:18;;;;;;;;;;;19.30;90.30;;;;;;4331075;33;42995;-77
2021/09/03 00:07:46;;;;;;;;;;;19.30;90.30;;;;;;4330723;33;43034;-77
2021/09/03 00:10:14;;;;;;;;;;;19.20;90.30;;;;;;4330985;33;43258;-77
2021/09/03 00:12:41;;;;;;;;;;;19.20;90.30;;;;;;4317639;33;42363;-77
2021/09/03 00:15:10;;;;;;;;;;;19.20;90.30;;;;;;4331011;33;43294;-78
2021/09/03 00:17:40;;;;;;;;;;;19.20;90.30;;;;;;4330663;33;43028;-77
2021/09/03 00:20:12;;;;;;;;;;;19.20;90.30;;;;;;4317405;33;43380;-77
2021/09/03 00:22:39;;;;;;;;;;;19.20;90.40;;;;;;4317380;33;43589;-77
2021/09/03 00:25:07;;;;;;;;;;;19.10;90.40;;;;;;4330312;33;45351;-77
2021/09/03 00:27:35;;;;;;;;;;;19.10;90.40;;;;;;4317711;33;43772;-77
2021/09/03 00:30:06;;;;;;;;;;;19.10;90.50;;;;;;4330429;33;43245;-77
2021/09/03 00:32:33;;;;;;;;;;;19.10;90.50;;;;;;4331027;33;43854;-77
2021/09/03 00:35:03;;;;;;;;;;;19.10;90.50;;;;;;4330972;33;43767;-77
2021/09/03 00:37:34;;;;;;;;;;;19.10;90.50;;;;;;4330421;33;44100;-78
2021/09/03 00:40:03;;;;;;;;;;;19.10;90.50;;;;;;4317669;33;43245;-77
2021/09/03 00:42:31;;;;;;;;;;;19.10;90.60;;;;;;4330298;33;42943;-78
2021/09/03 00:44:58;;;;;;;;;;;19.10;90.50;;;;;;4330879;33;43057;-77
2021/09/03 00:47:26;;;;;;;;;;;19.10;90.50;;;;;;4330734;33;44186;-77
2021/09/03 00:49:53;;;;;;;;;;;19.10;90.50;;;;;;4317309;33;43498;-77
2021/09/03 00:52:20;;;;;;;;;;;19.00;90.50;;;;;;4317017;33;44192;-77
2021/09/03 00:54:47;;;;;;;;;;;19.10;90.60;;;;;;4317029;33;42545;-77
2021/09/03 00:57:14;;;;;;;;;;;19.00;90.60;;;;;;4316826;33;44076;-78
2021/09/03 00:59:41;;;;;;;;;;;19.10;90.60;;;;;;4330623;33;43473;-77
2021/09/03 01:02:08;;;;;;;;;;;19.00;90.60;;;;;;4330082;33;44219;-78
2021/09/03 01:04:36;;;;;;;;;;;19.00;90.60;;;;;;4330588;33;44277;-78
2021/09/03 01:07:03;;;;;;;;;;;19.00;90.50;;;;;;4317048;33;44408;-78
2021/09/03 01:09:36;;;;;;;;;;;19.00;90.50;;;;;;4317300;33;43201;-78
2021/09/03 01:12:03;;;;;;;;;;;19.00;90.50;;;;;;4330101;33;42636;-79
2021/09/03 01:14:30;;;;;;;;;;;18.90;90.90;;;;;;4330160;33;44147;-78
2021/09/03 01:16:58;;;;;;;;;;;18.90;90.50;;;;;;4330007;33;43479;-78
2021/09/03 01:19:25;;;;;;;;;;;18.90;90.50;;;;;;4317143;33;43846;-78
2021/09/03 01:21:52;;;;;;;;;;;18.90;90.50;;;;;;4329977;33;42522;-78
2021/09/03 01:24:19;;;;;;;;;;;18.90;90.50;;;;;;4332068;33;43486;-78
2021/09/03 01:26:47;;;;;;;;;;;18.90;90.60;;;;;;4319934;33;44227;-77
2021/09/03 01:29:16;;;;;;;;;;;18.90;90.50;;;;;;4333112;33;43819;-78
2021/09/03 01:31:44;;;;;;;;;;;18.80;90.50;;;;;;4333577;33;44116;-79
2021/09/03 01:34:11;;;;;;;;;;;18.80;90.50;;;;;;4320057;33;44214;-78
2021/09/03 01:36:38;;;;;;;;;;;18.80;90.90;;;;;;4333380;33;43306;-78
2021/09/03 01:39:08;;;;;;;;;;;18.80;90.60;;;;;;4319790;33;42676;-78
2021/09/03 01:41:35;;;;;;;;;;;18.80;90.60;;;;;;4319806;33;43980;-78
2021/09/03 01:44:02;;;;;;;;;;;18.70;90.50;;;;;;4332714;33;43478;-78
2021/09/03 01:46:32;;;;;;;;;;;18.70;90.60;;;;;;4319793;33;43278;-78
2021/09/03 01:48:59;;;;;;;;;;;18.70;90.60;;;;;;4332706;33;45077;-78
2021/09/03 01:51:26;;;;;;;;;;;18.70;90.60;;;;;;4332903;33;44108;-78
2021/09/03 01:53:56;;;;;;;;;;;18.70;90.50;;;;;;4333130;33;43708;-79
2021/09/03 01:56:23;;;;;;;;;;;18.70;90.60;;;;;;4332763;33;44200;-78
2021/09/03 01:58:53;;;;;;;;;;;18.70;90.60;;;;;;4332490;33;43196;-78
2021/09/03 02:01:23;;;;;;;;;;;18.60;90.60;;;;;;4319831;33;24708;-78
2021/09/03 02:03:51;;;;;;;;;;;18.60;90.60;;;;;;4319473;33;42610;-79
2021/09/03 02:06:18;;;;;;;;;;;18.60;90.70;;;;;;4332494;33;43586;-78
2021/09/03 02:08:45;;;;;;;;;;;18.60;90.70;;;;;;4332515;33;42443;-78
2021/09/03 02:11:12;;;;;;;;;;;18.60;90.70;;;;;;4319155;33;43869;-78
2021/09/03 02:13:40;;;;;;;;;;;18.60;90.70;;;;;;4319082;33;42957;-78
2021/09/03 02:16:16;;;;;;;;;;;18.60;90.70;;;;;;4332736;33;44491;-78
2021/09/03 02:18:43;;;;;;;;;;;18.60;90.80;;;;;;4332652;33;43610;-78
2021/09/03 02:21:10;;;;;;;;;;;18.60;90.80;;;;;;4332384;33;42252;-78
2021/09/03 02:23:40;;;;;;;;;;;18.50;90.70;;;;;;4319224;33;43220;-78
2021/09/03 02:26:07;;;;;;;;;;;18.50;90.70;;;;;;4318961;33;43832;-78
2021/09/03 02:28:35;;;;;;;;;;;18.50;90.70;;;;;;4332486;33;43471;-78
2021/09/03 02:31:02;;;;;;;;;;;18.50;90.80;;;;;;4332518;33;44127;-78
2021/09/03 02:33:29;;;;;;;;;;;18.50;90.80;;;;;;4318994;33;43481;-79
2021/09/03 02:35:56;;;;;;;;;;;18.50;90.80;;;;;;4332677;33;44027;-78
2021/09/03 02:38:23;;;;;;;;;;;18.50;90.80;;;;;;4332155;33;43602;-78
2021/09/03 02:40:53;;;;;;;;;;;18.50;90.80;;;;;;4318732;33;43971;-78
2021/09/03 02:43:20;;;;;;;;;;;18.50;90.90;;;;;;4318680;33;42965;-79
2021/09/03 02:45:48;;;;;;;;;;;18.50;90.90;;;;;;4332410;33;44262;-79
2021/09/03 02:48:15;;;;;;;;;;;18.50;90.90;;;;;;4318985;33;43547;-78
2021/09/03 02:50:43;;;;;;;;;;;18.50;90.90;;;;;;4332232;33;44217;-78
2021/09/03 02:53:10;;;;;;;;;;;18.40;90.80;;;;;;4318810;33;44326;-78
2021/09/03 02:55:38;;;;;;;;;;;18.40;90.90;;;;;;4331721;33;44772;-78
2021/09/03 02:58:05;;;;;;;;;;;18.40;90.90;;;;;;4318837;33;42583;-78
2021/09/03 03:00:34;;;;;;;;;;;18.40;90.90;;;;;;4332071;33;43975;-79
2021/09/03 03:03:01;;;;;;;;;;;18.40;90.90;;;;;;4331441;33;42851;-79
2021/09/03 03:05:28;;;;;;;;;;;18.40;91.00;;;;;;4318388;33;43056;-78
2021/09/03 03:07:56;;;;;;;;;;;18.40;90.90;;;;;;4318950;33;45221;-79
2021/09/03 03:10:26;;;;;;;;;;;18.40;91.00;;;;;;4318482;33;43200;-78
2021/09/03 03:12:54;;;;;;;;;;;18.40;91.00;;;;;;4318750;33;44224;-78
2021/09/03 03:15:24;;;;;;;;;;;18.30;90.90;;;;;;4331928;33;43576;-78
2021/09/03 03:17:51;;;;;;;;;;;18.30;91.00;;;;;;4318620;33;43902;-78
2021/09/03 03:20:18;;;;;;;;;;;18.30;91.00;;;;;;4331883;33;43782;-78
2021/09/03 03:22:48;;;;;;;;;;;18.30;91.00;;;;;;4318665;33;45133;-78
2021/09/03 03:25:18;;;;;;;;;;;18.30;91.00;;;;;;4331250;33;44624;-78
2021/09/03 03:27:45;;;;;;;;;;;18.30;91.00;;;;;;4318535;33;43825;-78
2021/09/03 03:30:17;;;;;;;;;;;18.30;91.00;;;;;;4331430;33;43310;-77
2021/09/03 03:32:47;;;;;;;;;;;18.30;91.00;;;;;;4318298;33;42757;-79
2021/09/03 03:35:14;;;;;;;;;;;18.30;91.10;;;;;;4331589;33;44177;-78
2021/09/03 03:37:44;;;;;;;;;;;18.30;91.10;;;;;;4317877;33;44477;-78
2021/09/03 03:40:15;;;;;;;;;;;18.30;91.10;;;;;;4318594;33;44221;-79
2021/09/03 03:42:42;;;;;;;;;;;18.20;91.10;;;;;;4318044;33;43374;-78
2021/09/03 03:45:09;;;;;;;;;;;18.20;91.10;;;;;;4331284;33;43248;-78
2021/09/03 03:47:36;;;;;;;;;;;18.20;91.10;;;;;;4330634;33;43235;-78
2021/09/03 03:50:04;;;;;;;;;;;18.20;91.00;;;;;;4331208;33;43542;-78
2021/09/03 03:52:37;;;;;;;;;;;18.20;91.10;;;;;;4330969;33;42835;-79
2021/09/03 03:55:04;;;;;;;;;;;18.20;91.10;;;;;;4317799;33;43036;-78
2021/09/03 03:57:32;;;;;;;;;;;18.20;91.10;;;;;;4317758;33;43237;-78
2021/09/03 04:00:02;;;;;;;;;;;18.20;91.00;;;;;;4331346;33;45260;-77
2021/09/03 04:02:29;;;;;;;;;;;18.20;91.00;;;;;;4318808;33;20391;-78
2021/09/03 04:04:59;;;;;;;;;;;18.10;91.00;;;;;;4318005;33;44849;-78
2021/09/03 04:07:27;;;;;;;;;;;18.10;91.00;;;;;;4317679;33;43019;-78
2021/09/03 04:09:54;;;;;;;;;;;18.10;91.00;;;;;;4330812;33;43474;-78
2021/09/03 04:12:24;;;;;;;;;;;18.10;91.00;;;;;;4317682;33;42815;-78
2021/09/03 04:14:51;;;;;;;;;;;18.10;91.00;;;;;;4330869;33;44305;-78
2021/09/03 04:17:22;;;;;;;;;;;18.10;91.00;;;;;;4330545;33;43437;-78
2021/09/03 04:19:52;;;;;;;;;;;18.00;91.00;;;;;;4317748;33;43268;-79
2021/09/03 04:22:19;;;;;;;;;;;18.00;91.00;;;;;;4318137;33;44246;-78
2021/09/03 04:24:49;;;;;;;;;;;18.00;91.00;;;;;;4318282;33;43842;-78
2021/09/03 04:27:19;;;;;;;;;;;18.00;91.00;;;;;;4317813;33;43281;-77
2021/09/03 04:29:46;;;;;;;;;;;18.00;90.90;;;;;;4330974;33;42491;-78
2021/09/03 04:32:16;;;;;;;;;;;17.90;90.90;;;;;;4330865;33;43430;-78
2021/09/03 04:34:46;;;;;;;;;;;17.90;90.90;;;;;;4330834;33;43348;-78
2021/09/03 04:37:14;;;;;;;;;;;17.90;90.90;;;;;;4317210;33;42649;-78
2021/09/03 04:39:43;;;;;;;;;;;17.90;90.90;;;;;;4330240;33;42893;-77
2021/09/03 04:42:10;;;;;;;;;;;17.90;90.80;;;;;;4330612;33;45168;-77
2021/09/03 04:44:38;;;;;;;;;;;17.80;90.80;;;;;;4330666;33;42806;-78
2021/09/03 04:47:05;;;;;;;;;;;17.80;90.90;;;;;;4330737;33;42936;-78
2021/09/03 04:49:32;;;;;;;;;;;17.80;90.90;;;;;;4330346;33;42870;-77
2021/09/03 04:51:59;;;;;;;;;;;17.80;90.90;;;;;;4317197;33;43602;-78
2021/09/03 04:54:26;;;;;;;;;;;17.80;90.90;;;;;;4330489;33;43421;-77
2021/09/03 04:56:53;;;;;;;;;;;17.70;91.20;;;;;;4330115;33;43307;-78
2021/09/03 04:59:26;;;;;;;;;;;17.70;90.90;;;;;;4316694;33;42997;-78
2021/09/03 05:01:53;;;;;;;;;;;17.70;90.90;;;;;;4316730;33;43344;-78
2021/09/03 05:04:21;;;;;;;;;;;17.70;91.00;;;;;;4317461;33;44233;-77
2021/09/03 05:06:51;;;;;;;;;;;17.70;91.00;;;;;;4330104;33;42342;-77
2021/09/03 05:09:21;;;;;;;;;;;17.70;91.00;;;;;;4317223;33;42761;-78
2021/09/03 05:11:48;;;;;;;;;;;17.70;91.10;;;;;;4330670;33;43240;-77
2021/09/03 05:14:15;;;;;;;;;;;17.70;91.10;;;;;;4330027;33;43552;-78
2021/09/03 05:16:42;;;;;;;;;;;17.70;91.10;;;;;;4316988;33;43863;-78
2021/09/03 05:19:10;;;;;;;;;;;17.70;91.10;;;;;;4316695;33;43218;-78
2021/09/03 05:21:37;;;;;;;;;;;17.70;91.10;;;;;;4330201;33;44050;-78
2021/09/03 05:24:04;;;;;;;;;;;17.70;91.10;;;;;;4330248;33;44210;-78
2021/09/03 05:26:34;;;;;;;;;;;17.70;91.40;;;;;;4317609;33;43994;-78
2021/09/03 05:29:01;;;;;;;;;;;17.70;91.10;;;;;;4330366;33;43476;-79
2021/09/03 05:31:31;;;;;;;;;;;17.60;91.00;;;;;;4317364;33;44817;-78
2021/09/03 05:33:58;;;;;;;;;;;17.70;91.10;;;;;;4329914;33;44034;-78
2021/09/03 05:36:26;;;;;;;;;;;17.70;91.20;;;;;;4330235;33;42730;-78
2021/09/03 05:38:53;;;;;;;;;;;17.60;91.10;;;;;;4330198;33;43226;-78
2021/09/03 05:41:21;;;;;;;;;;;17.60;91.20;;;;;;4330251;33;42797;-78
2021/09/03 05:43:48;;;;;;;;;;;17.60;91.20;;;;;;4329770;33;44588;-78
2021/09/03 05:46:15;;;;;;;;;;;17.60;91.20;;;;;;4330297;33;43309;-78
2021/09/03 05:48:42;;;;;;;;;;;17.60;91.20;;;;;;4330369;33;43942;-78
2021/09/03 05:51:12;;;;;;;;;;;17.60;91.30;;;;;;4316699;33;43028;-78
2021/09/03 05:53:39;;;;;;;;;;;17.60;91.30;;;;;;4329864;33;43279;-78
2021/09/03 05:56:06;;;;;;;;;;;17.60;91.30;;;;;;4316977;33;43037;-79
2021/09/03 05:58:37;;;;;;;;;;;17.60;91.30;;;;;;4316674;33;44933;-79
2021/09/03 06:01:04;;;;;;;;;;;17.60;91.30;;;;;;4329815;33;44319;-79
2021/09/03 06:03:31;;;;;;;;;;;17.60;91.40;;;;;;4316564;33;44368;-79
2021/09/03 06:05:59;;;;;;;;;;;17.60;91.40;;;;;;4316795;33;44085;-78
2021/09/03 06:08:27;;;;;;;;;;;17.50;91.40;;;;;;4316622;33;42499;-78
2021/09/03 06:10:54;;;;;;;;;;;17.60;91.50;;;;;;4331751;33;43895;-78
2021/09/03 06:13:21;;;;;;;;;;;17.60;91.50;;;;;;4332465;33;43265;-79
2021/09/03 06:15:50;;;;;;;;;;;17.50;91.50;;;;;;4332686;33;43225;-78
2021/09/03 06:18:20;;;;;;;;;;;17.60;91.60;;;;;;4332845;33;43474;-78
2021/09/03 06:20:47;;;;;;;;;;;17.60;91.60;;;;;;4332716;33;43469;-79
2021/09/03 06:23:14;;;;;;;;;;;17.60;91.70;;;;;;4319512;33;43950;-79
2021/09/03 06:25:41;;;;;;;;;;;17.60;91.70;;;;;;4332362;33;43641;-78
2021/09/03 06:28:08;;;;;;;;;;;17.50;91.70;;;;;;4332254;33;42979;-78
2021/09/03 06:30:35;;;;;;;;;;;17.60;91.80;;;;;;4332216;33;44022;-79
2021/09/03 06:33:02;;;;;;;;;;;17.60;91.80;;;;;;4318939;33;43634;-78
2021/09/03 06:35:32;;;;;;;;;;;17.60;91.90;;;;;;4332430;33;43465;-78
2021/09/03 06:37:59;;;;;;;;;;;17.60;91.90;;;;;;4331938;33;43207;-78
2021/09/03 06:40:26;;;;;;;;;;;17.50;91.90;;;;;;4331943;33;45297;-78
2021/09/03 06:42:54;;;;;;;;;;;17.50;91.90;;;;;;4331925;33;43783;-79
2021/09/03 06:45:24;;;;;;;;;;;17.60;92.00;;;;;;4332116;33;43525;-78
2021/09/03 06:47:51;;;;;;;;;;;17.60;92.10;;;;;;4331866;33;45946;-77
2021/09/03 06:50:18;;;;;;;;;;;17.60;92.10;;;;;;4331791;33;43389;-80
2021/09/03 06:52:48;;;;;;;;;;;17.60;92.10;;;;;;4331763;33;44901;-78
2021/09/03 06:55:18;;;;;;;;;;;17.60;92.10;;;;;;4331869;33;43872;-78
2021/09/03 06:57:45;;;;;;;;;;;17.60;92.20;;;;;;4331862;33;46203;-78
2021/09/03 07:00:13;;;;;;;;;;;17.60;92.20;;;;;;4318301;33;43717;-77
2021/09/03 07:02:40;;;;;;;;;;;17.60;92.30;;;;;;4318579;33;43224;-77
2021/09/03 07:05:10;;;;;;;;;;;17.50;92.30;;;;;;4318812;33;43337;-77
2021/09/03 07:07:37;;;;;;;;;;;17.60;92.40;;;;;;4332180;33;46104;-78
2021/09/03 07:10:04;;;;;;;;;;;17.60;92.40;;;;;;4331650;33;44224;-77
2021/09/03 07:12:31;;;;;;;;;;;17.60;92.40;;;;;;4318253;33;44294;-77
2021/09/03 07:14:58;;;;;;;;;;;17.60;92.50;;;;;;4331871;33;43172;-77
2021/09/03 07:17:29;;;;;;;;;;;17.60;92.50;;;;;;4318357;33;43934;-77
2021/09/03 07:20:00;;;;;;;;;;;17.60;92.50;;;;;;4318201;33;43474;-77
2021/09/03 07:22:27;;;;;;;;;;;17.60;92.50;;;;;;4330789;33;42856;-77
2021/09/03 07:25:00;;;;;;;;;;;17.60;92.50;;;;;;4318682;33;44215;-77
2021/09/03 07:27:27;;;;;;;;;;;17.60;92.60;;;;;;4331444;33;43470;-78
2021/09/03 07:29:54;;;;;;;;;;;17.60;92.60;;;;;;4318574;33;44434;-77
2021/09/03 07:32:22;;;;;;;;;;;17.60;92.60;;;;;;4318606;33;42800;-78
2021/09/03 07:34:52;;;;;;;;;;;17.60;92.60;;;;;;4318070;33;44183;-77
2021/09/03 07:37:22;;;;;;;;;;;17.60;92.60;;;;;;4331634;33;43447;-77
2021/09/03 07:39:52;;;;;;;;;;;17.60;92.60;;;;;;4318230;33;44283;-77
2021/09/03 07:42:22;;;;;;;;;;;17.60;92.70;;;;;;4318642;33;43022;-77
2021/09/03 07:44:49;;;;;;;;;;;17.60;92.60;;;;;;4318263;33;42651;-78
2021/09/03 07:47:19;;;;;;;;;;;17.70;92.70;;;;;;4331059;33;43871;-77
2021/09/03 07:50:06;;;;;;;;;;;17.70;92.70;;;;;;4331617;33;43829;-77
2021/09/03 07:52:34;;;;;;;;;;;17.70;92.80;;;;;;4331550;33;43726;-77
2021/09/03 07:55:01;;;;;;;;;;;17.70;92.80;;;;;;4331431;33;44218;-77
2021/09/03 07:57:29;;;;;;;;;;;17.70;92.80;;;;;;4318188;33;43478;-77
2021/09/03 07:59:56;;;;;;;;;;;17.70;92.80;;;;;;4331054;33;43237;-77
2021/09/03 08:02:27;;;;;;;;;;;17.70;92.80;;;;;;4330837;33;44660;-77
2021/09/03 08:04:54;;;;;;;;;;;17.80;92.90;;;;;;4331927;33;20052;-77
2021/09/03 08:07:25;;;;;;;;;;;17.80;92.90;;;;;;4317540;33;44540;-77
2021/09/03 08:09:55;;;;;;;;;;;17.80;92.90;;;;;;4331212;33;43101;-77
2021/09/03 08:12:25;;;;;;;;;;;17.80;93.00;;;;;;4317659;33;43473;-76
2021/09/03 08:14:54;;;;;;;;;;;17.80;93.00;;;;;;4330843;33;43087;-76
2021/09/03 08:17:22;;;;;;;;;;;17.80;93.00;;;;;;4330639;33;43039;-76
2021/09/03 08:19:49;;;;;;;;;;;17.80;93.00;;;;;;4330726;33;45026;-77
2021/09/03 08:22:16;;;;;;;;;;;17.80;93.00;;;;;;4330572;33;43198;-77
2021/09/03 08:24:43;;;;;;;;;;;17.80;93.10;;;;;;4317932;33;42695;-76
2021/09/03 08:27:10;;;;;;;;;;;17.90;93.10;;;;;;4330991;33;43845;-76
2021/09/03 08:29:37;;;;;;;;;;;17.90;93.10;;;;;;4317519;33;42830;-76
2021/09/03 08:32:04;;;;;;;;;;;17.90;93.10;;;;;;4330842;33;43466;-77
2021/09/03 08:34:34;;;;;;;;;;;17.90;93.20;;;;;;4317732;33;44231;-77
2021/09/03 08:37:04;;;;;;;;;;;17.90;93.20;;;;;;4330397;33;43769;-76
2021/09/03 08:39:34;;;;;;;;;;;17.90;93.20;;;;;;4330780;33;44184;-77
2021/09/03 08:42:09;;;;;;;;;;;17.90;93.20;;;;;;4317350;33;43331;-76
2021/09/03 08:44:36;;;;;;;;;;;17.90;93.20;;;;;;4330692;33;43961;-77
2021/09/03 08:47:11;;;;;;;;;;;17.90;93.20;;;;;;4317159;33;42967;-77
2021/09/03 08:49:38;;;;;;;;;;;17.90;93.20;;;;;;4317194;33;43061;-78
2021/09/03 08:52:05;;;;;;;;;;;18.00;93.30;;;;;;4317254;33;43083;-77
2021/09/03 08:54:37;;;;;;;;;;;17.90;93.20;;;;;;4330717;33;43264;-77
2021/09/03 08:57:07;;;;;;;;;;;18.00;93.30;;;;;;4317360;33;43641;-77
2021/09/03 08:59:37;;;;;;;;;;;18.00;93.30;;;;;;4317304;33;43002;-77
2021/09/03 09:02:10;;;;;;;;;;;18.00;93.30;;;;;;4330255;33;43691;-77
2021/09/03 09:04:42;;;;;;;;;;;18.00;93.30;;;;;;4317011;33;44106;-76
2021/09/03 09:07:09;;;;;;;;;;;18.00;93.30;;;;;;4330801;33;43382;-77
2021/09/03 09:09:40;;;;;;;;;;;18.00;93.40;;;;;;4316951;33;43870;-76
2021/09/03 09:12:12;;;;;;;;;;;18.00;93.40;;;;;;4330570;33;45713;-76
2021/09/03 09:14:58;;;;;;;;;;;18.10;93.40;;;;;;4317457;33;44211;-76
2021/09/03 09:17:37;;;;;;;;;;;18.10;93.40;;;;;;4330736;33;43245;-78
2021/09/03 09:20:06;;;;;;;;;;;18.10;93.40;;;;;;4330280;33;44031;-77
2021/09/03 09:22:51;;;;;;;;;;;18.10;93.40;;;;;;4330449;33;43913;-76
2021/09/03 09:25:21;;;;;;;;;;;18.10;93.40;;;;;;4329934;33;44764;-76
2021/09/03 09:27:51;;;;;;;;;;;18.10;93.40;;;;;;4329959;33;44138;-76
2021/09/03 09:30:28;;;;;;;;;;;18.10;93.80;;;;;;4330156;33;42949;-76
2021/09/03 09:33:27;;;;;;;;;;;18.20;93.50;;;;;;4330509;33;42961;-76
2021/09/03 09:35:55;;;;;;;;;;;18.10;93.40;;;;;;4306187;33;20052;-76
2021/09/03 09:38:24;;;;;;;;;;;18.20;93.50;;;;;;4330074;33;42768;-76
2021/09/03 09:40:55;;;;;;;;;;;18.20;93.50;;;;;;4316899;33;43620;-76
2021/09/03 09:43:44;;;;;;;;;;;18.20;93.50;;;;;;4317528;33;43967;-76
2021/09/03 09:46:24;;;;;;;;;;;18.20;93.50;;;;;;4332778;33;44620;-76
2021/09/03 09:48:53;;;;;;;;;;;18.20;93.50;;;;;;4319751;33;42812;-76
2021/09/03 09:51:21;;;;;;;;;;;18.30;93.50;;;;;;4319855;33;43197;-76
2021/09/03 09:54:01;;;;;;;;;;;18.30;93.50;;;;;;4333101;33;45915;-76
2021/09/03 09:56:30;;;;;;;;;;;18.30;93.50;;;;;;4320000;33;43901;-77
2021/09/03 09:58:58;;;;;;;;;;;18.30;93.50;;;;;;4333100;33;44253;-76
2021/09/03 10:01:25;;;;;;;;;;;18.30;93.50;;;;;;4319278;33;44090;-76
2021/09/03 10:03:53;;;;;;;;;;;18.40;93.50;;;;;;4332712;33;44258;-76
2021/09/03 10:06:22;;;;;;;;;;;18.40;93.50;;;;;;4334178;33;20037;-76
2021/09/03 10:08:49;;;;;;;;;;;18.40;93.50;;;;;;4332327;33;44095;-77
2021/09/03 10:11:20;;;;;;;;;;;18.40;93.50;;;;;;4319770;33;44257;-76
2021/09/03 10:13:48;;;;;;;;;;;18.40;93.50;;;;;;4319909;33;44044;-76
2021/09/03 10:16:15;;;;;;;;;;;18.40;93.50;;;;;;4332543;33;42172;-76
2021/09/03 10:18:46;;;;;;;;;;;18.50;93.50;;;;;;4319404;33;44216;-78
2021/09/03 10:21:13;;;;;;;;;;;18.50;93.50;;;;;;4319921;33;43269;-76
2021/09/03 10:23:48;;;;;;;;;;;18.50;93.50;;;;;;4332653;33;42930;-76
2021/09/03 10:26:16;;;;;;;;;;;18.50;93.50;;;;;;4319489;33;43356;-76
2021/09/03 10:28:43;;;;;;;;;;;18.60;93.50;;;;;;4332151;33;43264;-76
2021/09/03 10:31:11;;;;;;;;;;;18.60;93.50;;;;;;4332038;33;45699;-75
2021/09/03 10:33:38;;;;;;;;;;;18.60;93.50;;;;;;4332042;33;44052;-75
2021/09/03 10:36:12;;;;;;;;;;;18.60;93.50;;;;;;4332511;33;44306;-75
2021/09/03 10:38:42;;;;;;;;;;;18.60;93.50;;;;;;4319047;33;43466;-77
2021/09/03 10:41:31;;;;;;;;;;;18.60;93.50;;;;;;4331960;33;44059;-76
2021/09/03 10:43:58;;;;;;;;;;;18.70;93.50;;;;;;4331887;33;43294;-76
2021/09/03 10:46:26;;;;;;;;;;;18.70;93.50;;;;;;4318619;33;45568;-76
2021/09/03 10:48:56;;;;;;;;;;;18.80;93.60;;;;;;4318721;33;43905;-75
2021/09/03 10:51:33;;;;;;;;;;;18.80;93.60;;;;;;4319204;33;43557;-75
2021/09/03 10:54:13;;;;;;;;;;;18.80;93.60;;;;;;4331846;33;42887;-76
2021/09/03 10:56:52;;;;;;;;;;;18.80;93.50;;;;;;4317676;33;44243;-76
2021/09/03 10:59:19;;;;;;;;;;;18.80;93.50;;;;;;4318965;33;43376;-75
2021/09/03 11:01:50;;;;;;;;;;;18.90;93.50;;;;;;4331533;33;42957;-76
2021/09/03 11:04:18;;;;;;;;;;;18.90;93.50;;;;;;4332119;33;44230;-75
2021/09/03 11:06:53;;;;;;;;;;;18.90;93.50;;;;;;4318518;33;43897;-76
2021/09/03 11:09:28;;;;;;;;;;;18.90;93.50;;;;;;4332684;33;20036;-75
2021/09/03 11:11:56;;;;;;;;;;;18.90;93.50;;;;;;4332073;33;43359;-76
2021/09/03 11:14:27;;;;;;;;;;;19.00;93.50;;;;;;4318325;33;43936;-75
2021/09/03 11:16:56;;;;;;;;;;;19.00;93.40;;;;;;4332133;33;43190;-75
2021/09/03 11:19:37;;;;;;;;;;;19.00;93.40;;;;;;4319183;33;44220;-75
2021/09/03 11:22:09;;;;;;;;;;;19.10;93.50;;;;;;4331396;33;42810;-77
2021/09/03 11:24:40;;;;;;;;;;;19.10;93.40;;;;;;4331500;33;43340;-75
2021/09/03 11:27:11;;;;;;;;;;;19.10;93.40;;;;;;4331354;33;43211;-75
2021/09/03 11:29:38;;;;;;;;;;;19.20;93.50;;;;;;4332030;33;43493;-76
2021/09/03 11:32:10;;;;;;;;;;;19.20;93.40;;;;;;4331529;33;43482;-76
2021/09/03 11:34:40;;;;;;;;;;;19.20;93.40;;;;;;4318694;33;43565;-76
2021/09/03 11:37:10;;;;;;;;;;;19.20;93.40;;;;;;4317988;33;44240;-76
2021/09/03 11:39:37;;;;;;;;;;;19.30;93.40;;;;;;4318991;33;20037;-75
2021/09/03 11:42:06;;;;;;;;;;;19.30;93.40;;;;;;4318013;33;43711;-75
2021/09/03 11:44:49;;;;;;;;;;;19.30;93.40;;;;;;4331095;33;42773;-75
2021/09/03 11:47:35;;;;;;;;;;;19.40;93.40;;;;;;4331528;33;44180;-75
2021/09/03 11:50:07;;;;;;;;;;;19.40;93.40;;;;;;4331250;33;44175;-75
2021/09/03 11:52:40;;;;;;;;;;;19.40;93.40;;;;;;4318204;33;43331;-76
2021/09/03 11:55:13;;;;;;;;;;;19.50;93.40;;;;;;4331335;33;42586;-75
2021/09/03 11:57:51;;;;;;;;;;;19.50;93.40;;;;;;4318330;33;42693;-75
2021/09/03 12:00:24;;;;;;;;;;;19.60;93.40;;;;;;4331428;33;43306;-75
2021/09/03 12:02:52;;;;;;;;;;;19.60;93.40;;;;;;4331122;33;45794;-76
2021/09/03 12:05:19;;;;;;;;;;;19.60;93.40;;;;;;4317688;33;42519;-75
2021/09/03 12:08:03;;;;;;;;;;;19.70;93.40;;;;;;4330423;33;44094;-76
2021/09/03 12:10:50;;;;;;;;;;;19.70;93.40;;;;;;4318813;33;20034;-75
2021/09/03 12:13:18;;;;;;;;;;;19.70;93.40;;;;;;4323151;33;44204;-76
2021/09/03 12:15:57;;;;;;;;;;;19.70;93.30;;;;;;4330651;33;43274;-75
2021/09/03 12:18:29;;;;;;;;;;;19.70;93.30;;;;;;4318037;33;43061;-75
2021/09/03 12:20:59;;;;;;;;;;;19.80;93.30;;;;;;4330590;33;43678;-75
2021/09/03 12:23:30;;;;;;;;;;;19.80;93.30;;;;;;4330760;33;43998;-76
2021/09/03 12:26:02;;;;;;;;;;;19.90;93.30;;;;;;4330781;33;44120;-75
2021/09/03 12:28:29;;;;;;;;;;;19.90;93.30;;;;;;4330797;33;43267;-75
2021/09/03 12:30:56;;;;;;;;;;;19.90;93.30;;;;;;4330942;33;44249;-75
2021/09/03 12:33:28;;;;;;;;;;;19.90;93.30;;;;;;4330890;33;43456;-75
2021/09/03 12:36:16;;;;;;;;;;;20.00;93.30;;;;;;4317942;33;43908;-75
2021/09/03 12:38:47;;;;;;;;;;;20.00;93.30;;;;;;4330451;33;43105;-76
2021/09/03 12:41:19;;;;;;;;;;;20.10;93.30;;;;;;4318535;33;20480;-75
2021/09/03 12:43:54;;;;;;;;;;;20.10;93.70;;;;;;4330885;33;43758;-75
2021/09/03 12:46:24;;;;;;;;;;;20.10;93.30;;;;;;4330471;33;43168;-75
2021/09/03 12:49:09;;;;;;;;;;;20.20;93.30;;;;;;4317517;33;43497;-75
2021/09/03 12:51:43;;;;;;;;;;;20.20;93.30;;;;;;4317619;33;43478;-75
2021/09/03 12:54:14;;;;;;;;;;;20.30;93.30;;;;;;4317633;33;43164;-75
2021/09/03 12:56:44;;;;;;;;;;;20.30;93.30;;;;;;4330445;33;42870;-75
2021/09/03 12:59:15;;;;;;;;;;;20.40;93.30;;;;;;4317566;33;43249;-75
2021/09/03 13:01:48;;;;;;;;;;;20.40;93.30;;;;;;4330368;33;43626;-75
2021/09/03 13:04:19;;;;;;;;;;;20.50;93.30;;;;;;4330127;33;44111;-75
2021/09/03 13:06:48;;;;;;;;;;;20.50;93.30;;;;;;4330531;33;43251;-75
2021/09/03 13:09:16;;;;;;;;;;;20.50;93.20;;;;;;4330278;33;44066;-75
2021/09/03 13:11:49;;;;;;;;;;;20.60;93.20;;;;;;4331150;33;20009;-75
2021/09/03 13:14:20;;;;;;;;;;;20.60;93.20;;;;;;4316948;33;42794;-75
2021/09/03 13:16:47;;;;;;;;;;;20.70;93.20;;;;;;4330389;33;42740;-75
2021/09/03 13:19:17;;;;;;;;;;;20.70;93.30;;;;;;4330667;33;42712;-75
2021/09/03 13:21:49;;;;;;;;;;;20.70;93.20;;;;;;4333142;33;44216;-76
2021/09/03 13:24:16;;;;;;;;;;;20.80;93.20;;;;;;4333638;33;43830;-75
2021/09/03 13:26:43;;;;;;;;;;;20.90;93.20;;;;;;4332993;33;43825;-75
2021/09/03 13:29:16;;;;;;;;;;;20.90;93.20;;;;;;4319797;33;42672;-76
2021/09/03 13:31:46;;;;;;;;;;;20.90;93.20;;;;;;4320138;33;42902;-75
2021/09/03 13:34:13;;;;;;;;;;;21.00;93.20;;;;;;4319748;33;43750;-75
2021/09/03 13:36:40;;;;;;;;;;;21.00;93.20;;;;;;4333027;33;43924;-75
2021/09/03 13:39:09;;;;;;;;;;;21.10;93.20;;;;;;4333092;33;44207;-75
2021/09/03 13:41:38;;;;;;;;;;;21.10;93.20;;;;;;4332753;33;43669;-75
2021/09/03 13:44:05;;;;;;;;;;;21.10;93.20;;;;;;4332767;33;44202;-75
2021/09/03 13:46:35;;;;;;;;;;;21.20;93.50;;;;;;4332863;33;43175;-75
2021/09/03 13:49:03;;;;;;;;;;;21.20;93.10;;;;;;4332902;33;43794;-75
2021/09/03 13:51:30;;;;;;;;;;;21.30;93.10;;;;;;4319546;33;43251;-75
2021/09/03 13:54:00;;;;;;;;;;;21.30;93.00;;;;;;4332856;33;44190;-75
2021/09/03 13:56:31;;;;;;;;;;;21.40;93.00;;;;;;4320364;33;42626;-75
2021/09/03 13:59:03;;;;;;;;;;;21.50;93.00;;;;;;4332983;33;43861;-75
2021/09/03 14:01:30;;;;;;;;;;;21.50;92.80;;;;;;4332947;33;43033;-75
2021/09/03 14:03:58;;;;;;;;;;;21.50;92.90;;;;;;4320113;33;44116;-75
2021/09/03 14:06:26;;;;;;;;;;;21.60;92.90;;;;;;4332750;33;43274;-75
2021/09/03 14:08:56;;;;;;;;;;;21.60;92.80;;;;;;4332669;33;43567;-76
2021/09/03 14:11:23;;;;;;;;;;;21.70;92.80;;;;;;4319788;33;44245;-76
2021/09/03 14:13:56;;;;;;;;;;;21.70;92.70;;;;;;4334123;33;19997;-75
2021/09/03 14:16:24;;;;;;;;;;;21.70;92.60;;;;;;4332548;33;44089;-75
2021/09/03 14:18:53;;;;;;;;;;;21.70;92.60;;;;;;4332769;33;44212;-76
2021/09/03 14:21:29;;;;;;;;;;;21.80;92.60;;;;;;4332278;33;43714;-76
2021/09/03 14:23:56;;;;;;;;;;;21.80;92.60;;;;;;4319605;33;46143;-76
2021/09/03 14:26:26;;;;;;;;;;;21.90;92.50;;;;;;4332314;33;41756;-75
2021/09/03 14:28:53;;;;;;;;;;;21.90;92.50;;;;;;4318996;33;43039;-75